Time;durP1;ratioP1;P1;durP2;ratioP2;P2;SDS_P1;SDS_P2;PMS_P1;PMS_P2;Temp;Humidity;BMP_temperature;BMP_pressure;BME280_temperature;BME280_humidity;BME280_pressure;Samples;Min_cycle;Max_cycle;Signal;HPM_P1;HPM_P2
2024/01/21 00:02:55;;;;;;;35.40;19.08;;;;;;;;;;6227353;28;24420;-74
2024/01/21 00:05:56;;;;;;;31.30;17.58;;;;;;;;;;6228808;28;24440;-74
2024/01/21 00:08:58;;;;;;;28.50;16.75;;;;;;;;;;6229468;28;24425;-74
2024/01/21 00:12:02;;;;;;;28.27;15.53;;;;;;;;;;6228688;28;24420;-75
2024/01/21 00:15:07;;;;;;;25.85;14.95;;;;;;;;;;6227009;28;24536;-74
2024/01/21 00:18:08;;;;;;;23.98;13.75;;;;;;;;;;6228053;28;24436;-75
2024/01/21 00:21:10;;;;;;;23.05;14.35;;;;;;;;;;6228912;28;24789;-75
2024/01/21 00:24:12;;;;;;;21.98;12.13;;;;;;;;;;6228481;28;24427;-74
2024/01/21 00:27:14;;;;;;;18.73;12.00;;;;;;;;;;6227171;28;24432;-75
2024/01/21 00:30:17;;;;;;;20.02;11.52;;;;;;;;;;6228944;28;24859;-74
2024/01/21 00:33:20;;;;;;;17.67;10.90;;;;;;;;;;6226738;28;24487;-74
2024/01/21 00:36:21;;;;;;;17.60;10.32;;;;;;;;;;6228335;28;24516;-78
2024/01/21 00:39:23;;;;;;;16.67;10.32;;;;;;;;;;6227491;28;24424;-78
2024/01/21 00:42:25;;;;;;;14.02;9.60;;;;;;;;;;6228992;28;24412;-78
2024/01/21 00:45:28;;;;;;;15.32;9.50;;;;;;;;;;6227014;28;24459;-78
2024/01/21 00:48:31;;;;;;;15.52;9.85;;;;;;;;;;6227455;28;24475;-78
2024/01/21 00:51:33;;;;;;;16.97;9.40;;;;;;;;;;6227682;28;24512;-78
2024/01/21 00:54:35;;;;;;;12.77;9.25;;;;;;;;;;6226960;28;24490;-77
2024/01/21 00:57:38;;;;;;;15.35;9.35;;;;;;;;;;6227824;28;24500;-77
2024/01/21 01:00:41;;;;;;;16.55;9.55;;;;;;;;;;6225706;28;24440;-78
2024/01/21 01:03:44;;;;;;;14.63;9.15;;;;;;;;;;6226653;28;24550;-78
2024/01/21 01:06:46;;;;;;;13.93;8.63;;;;;;;;;;6228745;28;24439;-78
2024/01/21 01:09:47;;;;;;;14.43;9.05;;;;;;;;;;6228025;28;24470;-78
2024/01/21 01:12:49;;;;;;;14.75;9.18;;;;;;;;;;6225243;28;24424;-77
2024/01/21 01:15:53;;;;;;;14.73;9.25;;;;;;;;;;6224126;28;24666;-78
2024/01/21 01:18:54;;;;;;;12.02;8.23;;;;;;;;;;6225064;28;24630;-78
2024/01/21 01:21:56;;;;;;;15.10;8.95;;;;;;;;;;6225940;28;24432;-77
2024/01/21 01:24:58;;;;;;;15.68;9.55;;;;;;;;;;6227689;28;24420;-76
2024/01/21 01:28:00;;;;;;;13.10;8.70;;;;;;;;;;6226106;28;24818;-76
2024/01/21 01:31:04;;;;;;;12.47;8.40;;;;;;;;;;6227921;28;24641;-78
2024/01/21 01:34:06;;;;;;;12.48;8.43;;;;;;;;;;6225101;28;24463;-78
2024/01/21 01:37:09;;;;;;;13.20;8.68;;;;;;;;;;6224128;28;24835;-78
2024/01/21 01:40:11;;;;;;;13.77;8.80;;;;;;;;;;6223613;28;24465;-76
2024/01/21 01:43:15;;;;;;;14.48;8.63;;;;;;;;;;6226950;28;24432;-77
2024/01/21 01:46:18;;;;;;;14.97;9.20;;;;;;;;;;6224796;28;24437;-74
2024/01/21 01:49:20;;;;;;;15.80;8.85;;;;;;;;;;6227420;28;24467;-74
2024/01/21 01:52:22;;;;;;;14.70;9.20;;;;;;;;;;6226159;28;24892;-73
2024/01/21 01:55:24;;;;;;;13.87;8.67;;;;;;;;;;6227449;28;24428;-72
2024/01/21 01:58:28;;;;;;;15.33;9.30;;;;;;;;;;6226678;28;24427;-73
2024/01/21 02:01:31;;;;;;;15.55;9.45;;;;;;;;;;6226296;28;24420;-72
2024/01/21 02:04:33;;;;;;;14.95;9.18;;;;;;;;;;6227393;28;24412;-74
2024/01/21 02:07:35;;;;;;;15.85;9.48;;;;;;;;;;6226330;28;24483;-74
2024/01/21 02:10:37;;;;;;;16.08;10.23;;;;;;;;;;6225219;28;24473;-74
2024/01/21 02:13:39;;;;;;;15.50;10.18;;;;;;;;;;6227349;28;24428;-74
2024/01/21 02:16:42;;;;;;;14.88;9.57;;;;;;;;;;6209798;28;24459;-73
2024/01/21 02:19:44;;;;;;;16.15;9.57;;;;;;;;;;6225264;28;24435;-74
2024/01/21 02:22:46;;;;;;;15.82;9.60;;;;;;;;;;6225745;28;24432;-74
2024/01/21 02:25:50;;;;;;;14.00;9.43;;;;;;;;;;6225858;28;24540;-73
2024/01/21 02:28:52;;;;;;;15.95;9.60;;;;;;;;;;6227587;28;24424;-73
2024/01/21 02:31:55;;;;;;;15.95;9.68;;;;;;;;;;6225729;28;24443;-73
2024/01/21 02:34:57;;;;;;;15.07;9.88;;;;;;;;;;6226279;28;24428;-73
2024/01/21 02:37:58;;;;;;;15.63;9.88;;;;;;;;;;6206206;28;24511;-74
2024/01/21 02:41:02;;;;;;;15.70;10.10;;;;;;;;;;6226241;28;24474;-73
2024/01/21 02:44:05;;;;;;;15.27;10.30;;;;;;;;;;6225314;28;24463;-74
2024/01/21 02:47:07;;;;;;;16.75;10.57;;;;;;;;;;6227001;28;24421;-75
2024/01/21 02:50:08;;;;;;;15.33;10.70;;;;;;;;;;6226274;28;24425;-73
2024/01/21 02:53:10;;;;;;;16.83;11.07;;;;;;;;;;6225245;28;24839;-72
2024/01/21 02:56:22;;;;;;;17.20;10.48;;;;;;;;;;6225960;28;24434;-73
2024/01/21 02:59:24;;;;;;;16.15;10.45;;;;;;;;;;6225562;28;24520;-73
2024/01/21 03:02:25;;;;;;;16.88;10.50;;;;;;;;;;6227560;28;25181;-73
2024/01/21 03:05:29;;;;;;;16.10;10.55;;;;;;;;;;6231567;28;24431;-73
2024/01/21 03:08:30;;;;;;;17.98;11.25;;;;;;;;;;6231955;28;24444;-73
2024/01/21 03:11:35;;;;;;;19.02;10.88;;;;;;;;;;6234647;28;24421;-74
2024/01/21 03:14:36;;;;;;;17.42;11.10;;;;;;;;;;6230439;28;24499;-73
2024/01/21 03:17:38;;;;;;;20.70;11.55;;;;;;;;;;6229943;28;24439;-74
2024/01/21 03:20:40;;;;;;;20.13;11.57;;;;;;;;;;6230863;28;24431;-72
2024/01/21 03:23:41;;;;;;;18.83;11.27;;;;;;;;;;6229118;28;24494;-73
2024/01/21 03:26:45;;;;;;;19.07;11.83;;;;;;;;;;6229672;28;24431;-73
2024/01/21 03:29:47;;;;;;;19.90;11.80;;;;;;;;;;6222088;28;24416;-74
2024/01/21 03:32:48;;;;;;;19.90;11.68;;;;;;;;;;6229519;28;24451;-74
2024/01/21 03:35:50;;;;;;;17.25;11.50;;;;;;;;;;6230064;28;24424;-73
2024/01/21 03:38:52;;;;;;;16.90;11.60;;;;;;;;;;6229416;28;24462;-73
2024/01/21 03:41:56;;;;;;;18.77;11.82;;;;;;;;;;6231008;28;24492;-73
2024/01/21 03:44:57;;;;;;;18.25;11.68;;;;;;;;;;6230398;28;24431;-73
2024/01/21 03:47:59;;;;;;;18.27;11.77;;;;;;;;;;6229097;28;24423;-74
2024/01/21 03:51:01;;;;;;;21.00;11.90;;;;;;;;;;6228873;28;24432;-73
2024/01/21 03:54:03;;;;;;;17.52;11.18;;;;;;;;;;6229637;28;24534;-74
2024/01/21 03:57:06;;;;;;;18.80;11.27;;;;;;;;;;6228213;28;24484;-73
2024/01/21 04:00:09;;;;;;;19.40;11.13;;;;;;;;;;6228711;28;24846;-74
2024/01/21 04:03:11;;;;;;;18.98;10.88;;;;;;;;;;6228303;28;24431;-75
2024/01/21 04:06:13;;;;;;;17.17;10.70;;;;;;;;;;6227422;28;25027;-73
2024/01/21 04:09:15;;;;;;;17.05;10.45;;;;;;;;;;6228456;28;24425;-74
2024/01/21 04:12:20;;;;;;;15.73;10.30;;;;;;;;;;6228819;28;24499;-74
2024/01/21 04:15:22;;;;;;;17.48;10.45;;;;;;;;;;6229853;28;24435;-75
2024/01/21 04:18:23;;;;;;;16.52;9.95;;;;;;;;;;6228843;28;24821;-74
2024/01/21 04:21:26;;;;;;;15.05;9.73;;;;;;;;;;6227876;28;24439;-75
2024/01/21 04:24:27;;;;;;;16.08;9.93;;;;;;;;;;6229625;28;24433;-75
2024/01/21 04:27:31;;;;;;;16.77;10.47;;;;;;;;;;6229456;28;24436;-74
2024/01/21 04:30:33;;;;;;;13.93;9.48;;;;;;;;;;6229367;28;24412;-74
2024/01/21 04:33:36;;;;;;;14.68;9.32;;;;;;;;;;6228450;28;24448;-74
2024/01/21 04:36:38;;;;;;;14.88;9.40;;;;;;;;;;6228267;28;25014;-74
2024/01/21 04:39:40;;;;;;;14.65;9.55;;;;;;;;;;6228958;28;24609;-74
2024/01/21 04:42:43;;;;;;;14.10;9.27;;;;;;;;;;6228358;28;24428;-74
2024/01/21 04:45:45;;;;;;;14.93;9.40;;;;;;;;;;6228430;28;24419;-76
2024/01/21 04:48:47;;;;;;;14.63;9.18;;;;;;;;;;6228384;28;24837;-75
2024/01/21 04:51:49;;;;;;;14.95;9.00;;;;;;;;;;6227677;28;24482;-74
2024/01/21 04:54:51;;;;;;;14.25;8.60;;;;;;;;;;6227179;28;24511;-74
2024/01/21 04:57:54;;;;;;;15.85;8.93;;;;;;;;;;6228882;28;24622;-74
2024/01/21 05:00:56;;;;;;;15.60;9.02;;;;;;;;;;6227616;28;24440;-74
2024/01/21 05:03:58;;;;;;;14.40;9.10;;;;;;;;;;6210980;28;24429;-74
2024/01/21 05:07:00;;;;;;;14.60;9.05;;;;;;;;;;6228759;28;24432;-73
2024/01/21 05:10:03;;;;;;;14.02;8.77;;;;;;;;;;6227547;28;24654;-73
2024/01/21 05:13:07;;;;;;;13.52;8.57;;;;;;;;;;6226166;28;24486;-73
2024/01/21 05:16:08;;;;;;;13.75;8.90;;;;;;;;;;6227292;28;24487;-73
2024/01/21 05:19:11;;;;;;;14.90;9.10;;;;;;;;;;6227227;28;24436;-73
2024/01/21 05:22:12;;;;;;;15.27;9.13;;;;;;;;;;6228818;28;24431;-73
2024/01/21 05:25:14;;;;;;;14.80;9.00;;;;;;;;;;6227824;28;24809;-73
2024/01/21 05:28:18;;;;;;;14.02;8.85;;;;;;;;;;6226964;28;24507;-73
2024/01/21 05:31:20;;;;;;;14.23;8.70;;;;;;;;;;6225366;28;24409;-73
2024/01/21 05:34:22;;;;;;;14.87;8.53;;;;;;;;;;6228058;28;24423;-73
2024/01/21 05:37:24;;;;;;;14.15;8.52;;;;;;;;;;6228194;28;24980;-72
2024/01/21 05:40:26;;;;;;;14.27;8.50;;;;;;;;;;6225710;28;24428;-74
2024/01/21 05:43:31;;;;;;;13.13;8.40;;;;;;;;;;6226965;28;24482;-73
2024/01/21 05:46:32;;;;;;;15.00;8.85;;;;;;;;;;6226144;28;25139;-73
2024/01/21 05:49:35;;;;;;;12.30;8.25;;;;;;;;;;6226512;28;24413;-73
2024/01/21 05:52:37;;;;;;;16.05;8.98;;;;;;;;;;6227707;28;24475;-74
2024/01/21 05:55:38;;;;;;;14.32;8.45;;;;;;;;;;6226949;28;24467;-73
2024/01/21 05:58:42;;;;;;;12.95;7.90;;;;;;;;;;6227228;28;24432;-73
2024/01/21 06:01:44;;;;;;;14.25;8.38;;;;;;;;;;6225353;28;24432;-74
2024/01/21 06:04:46;;;;;;;12.88;8.63;;;;;;;;;;6226035;28;24413;-73
2024/01/21 06:07:48;;;;;;;12.65;8.38;;;;;;;;;;6209802;28;24859;-73
2024/01/21 06:10:50;;;;;;;14.17;8.37;;;;;;;;;;6226606;28;24499;-73
2024/01/21 06:13:53;;;;;;;14.40;8.70;;;;;;;;;;6227010;28;24966;-73
2024/01/21 06:16:55;;;;;;;12.77;8.45;;;;;;;;;;6225753;28;24911;-73
2024/01/21 06:19:57;;;;;;;14.60;8.20;;;;;;;;;;6225873;28;24806;-74
2024/01/21 06:22:59;;;;;;;12.52;8.40;;;;;;;;;;6225633;28;24424;-73
2024/01/21 06:26:02;;;;;;;15.57;8.43;;;;;;;;;;6225469;28;24424;-77
2024/01/21 06:29:05;;;;;;;11.60;7.80;;;;;;;;;;6226032;28;24911;-77
2024/01/21 06:32:07;;;;;;;13.15;8.18;;;;;;;;;;6227588;28;24429;-77
2024/01/21 06:35:10;;;;;;;12.23;7.70;;;;;;;;;;6226462;28;24886;-77
2024/01/21 06:38:11;;;;;;;14.03;8.50;;;;;;;;;;6230919;28;24682;-77
2024/01/21 06:41:13;;;;;;;13.68;8.48;;;;;;;;;;6230807;28;24432;-77
2024/01/21 06:44:19;;;;;;;14.00;8.32;;;;;;;;;;6230681;28;24455;-77
2024/01/21 06:47:20;;;;;;;13.82;8.55;;;;;;;;;;6230655;28;24432;-77
2024/01/21 06:50:22;;;;;;;13.77;8.17;;;;;;;;;;6231713;28;24428;-77
2024/01/21 06:53:24;;;;;;;14.75;8.35;;;;;;;;;;6231455;28;24958;-77
2024/01/21 06:56:26;;;;;;;13.60;8.70;;;;;;;;;;6230519;28;24543;-78
2024/01/21 06:59:29;;;;;;;14.53;9.30;;;;;;;;;;6230468;28;24478;-79
2024/01/21 07:02:32;;;;;;;14.07;8.73;;;;;;;;;;6230562;28;24424;-77
2024/01/21 07:05:33;;;;;;;16.27;8.80;;;;;;;;;;6229633;28;24428;-77
2024/01/21 07:08:35;;;;;;;13.93;8.88;;;;;;;;;;6230680;28;24974;-77
2024/01/21 07:11:38;;;;;;;13.35;8.57;;;;;;;;;;6228967;28;24442;-77
2024/01/21 07:14:41;;;;;;;14.52;9.20;;;;;;;;;;6228586;28;24436;-77
2024/01/21 07:17:45;;;;;;;13.77;8.70;;;;;;;;;;6231158;28;25040;-77
2024/01/21 07:20:46;;;;;;;14.70;9.30;;;;;;;;;;6230661;28;24427;-77
2024/01/21 07:23:48;;;;;;;13.15;8.68;;;;;;;;;;6228696;28;24805;-77
2024/01/21 07:26:50;;;;;;;16.20;9.02;;;;;;;;;;6230978;28;24416;-77
2024/01/21 07:29:53;;;;;;;16.30;9.33;;;;;;;;;;6229998;28;25091;-77
2024/01/21 07:32:55;;;;;;;14.93;8.30;;;;;;;;;;6230357;28;24475;-77
2024/01/21 07:36:00;;;;;;;15.33;8.63;;;;;;;;;;6230518;28;24495;-77
2024/01/21 07:39:03;;;;;;;15.10;9.10;;;;;;;;;;6228899;28;24603;-77
2024/01/21 07:42:06;;;;;;;14.35;9.13;;;;;;;;;;6229742;28;24424;-77
2024/01/21 07:45:11;;;;;;;15.75;9.40;;;;;;;;;;6230496;28;24427;-77
2024/01/21 07:48:15;;;;;;;14.27;8.80;;;;;;;;;;6230198;28;24517;-78
2024/01/21 07:51:18;;;;;;;14.05;8.65;;;;;;;;;;6229894;28;24622;-75
2024/01/21 07:54:20;;;;;;;13.98;8.35;;;;;;;;;;6229022;28;24444;-77
2024/01/21 07:57:22;;;;;;;14.82;9.10;;;;;;;;;;6228687;28;24551;-79
2024/01/21 08:00:25;;;;;;;13.13;8.40;;;;;;;;;;6228617;28;24475;-77
2024/01/21 08:03:27;;;;;;;13.63;9.30;;;;;;;;;;6220472;28;24423;-77
2024/01/21 08:06:28;;;;;;;15.45;10.10;;;;;;;;;;6229593;28;24421;-77
2024/01/21 08:09:30;;;;;;;14.98;10.68;;;;;;;;;;6228919;28;24432;-76
2024/01/21 08:12:32;;;;;;;16.77;10.82;;;;;;;;;;6227771;28;24512;-77
2024/01/21 08:15:37;;;;;;;14.50;10.40;;;;;;;;;;6230087;28;24674;-76
2024/01/21 08:18:39;;;;;;;15.80;10.63;;;;;;;;;;6228121;28;24425;-77
2024/01/21 08:21:41;;;;;;;16.05;10.10;;;;;;;;;;6228697;28;24436;-77
2024/01/21 08:24:44;;;;;;;15.88;10.27;;;;;;;;;;6228404;28;24678;-77
2024/01/21 08:27:46;;;;;;;16.15;10.05;;;;;;;;;;6228158;28;24428;-77
2024/01/21 08:30:49;;;;;;;15.80;10.07;;;;;;;;;;6229171;28;24443;-78
2024/01/21 08:33:51;;;;;;;13.30;8.73;;;;;;;;;;6229125;28;24626;-77
2024/01/21 08:36:53;;;;;;;11.57;8.25;;;;;;;;;;6228571;28;24885;-77
2024/01/21 08:39:55;;;;;;;13.77;7.88;;;;;;;;;;6227606;28;24444;-77
2024/01/21 08:42:57;;;;;;;12.10;7.90;;;;;;;;;;6228270;28;24967;-77
2024/01/21 08:46:00;;;;;;;11.60;7.47;;;;;;;;;;6228553;28;24419;-74
2024/01/21 08:49:02;;;;;;;10.68;7.25;;;;;;;;;;6227983;28;24452;-73
2024/01/21 08:52:04;;;;;;;10.43;6.63;;;;;;;;;;6228801;28;24431;-75
2024/01/21 08:55:08;;;;;;;10.00;6.93;;;;;;;;;;6217749;28;24523;-73
2024/01/21 08:58:09;;;;;;;9.13;6.22;;;;;;;;;;6239824;28;24428;-75
2024/01/21 09:01:13;;;;;;;10.90;6.15;;;;;;;;;;6227587;28;24432;-74
2024/01/21 09:04:15;;;;;;;7.43;5.32;;;;;;;;;;6227207;28;24620;-74
2024/01/21 09:07:16;;;;;;;9.35;6.18;;;;;;;;;;6227500;28;24427;-74
2024/01/21 09:10:20;;;;;;;8.55;5.57;;;;;;;;;;6227582;28;24412;-74
2024/01/21 09:13:22;;;;;;;8.10;5.50;;;;;;;;;;6227044;28;24421;-72
2024/01/21 09:16:25;;;;;;;8.57;5.50;;;;;;;;;;6226387;28;24432;-74
2024/01/21 09:19:27;;;;;;;8.18;5.72;;;;;;;;;;6226689;28;24428;-74
2024/01/21 09:22:29;;;;;;;8.65;5.57;;;;;;;;;;6226864;28;24444;-74
2024/01/21 09:25:30;;;;;;;8.23;5.45;;;;;;;;;;6225759;28;24428;-74
2024/01/21 09:28:32;;;;;;;7.32;5.30;;;;;;;;;;6227254;28;24466;-74
2024/01/21 09:31:36;;;;;;;6.30;4.93;;;;;;;;;;6227886;28;24435;-73
2024/01/21 09:34:39;;;;;;;6.75;5.25;;;;;;;;;;6227665;28;24430;-73
2024/01/21 09:37:41;;;;;;;8.48;5.70;;;;;;;;;;6227062;28;24408;-74
2024/01/21 09:40:43;;;;;;;9.40;5.65;;;;;;;;;;6227503;28;24420;-74
2024/01/21 09:43:45;;;;;;;7.47;5.53;;;;;;;;;;6225909;28;24424;-74
2024/01/21 09:46:53;;;;;;;7.70;4.72;;;;;;;;;;6222766;28;24434;-74
2024/01/21 09:49:56;;;;;;;6.90;4.93;;;;;;;;;;6235598;28;24834;-74
2024/01/21 09:52:58;;;;;;;7.72;5.18;;;;;;;;;;6226910;28;24467;-73
2024/01/21 09:56:05;;;;;;;7.43;5.00;;;;;;;;;;6227618;28;24750;-74
2024/01/21 09:59:09;;;;;;;8.55;5.32;;;;;;;;;;6225857;28;24420;-74
2024/01/21 10:02:16;;;;;;;6.33;4.97;;;;;;;;;;6209715;28;24474;-74
2024/01/21 10:05:19;;;;;;;7.20;5.60;;;;;;;;;;6226887;28;24500;-74
2024/01/21 10:08:23;;;;;;;7.95;5.75;;;;;;;;;;6225024;28;24770;-74
2024/01/21 10:11:25;;;;;;;9.35;5.80;;;;;;;;;;6224963;28;24432;-74
2024/01/21 10:14:27;;;;;;;8.75;5.80;;;;;;;;;;6225583;28;24837;-74
2024/01/21 10:17:31;;;;;;;7.60;5.55;;;;;;;;;;6225767;28;24420;-75
2024/01/21 10:20:34;;;;;;;6.85;5.65;;;;;;;;;;6227230;28;24496;-74
2024/01/21 10:23:35;;;;;;;7.72;5.55;;;;;;;;;;6226886;28;24424;-74
2024/01/21 10:26:37;;;;;;;8.38;6.03;;;;;;;;;;6224955;28;24633;-75
2024/01/21 10:29:41;;;;;;;7.75;5.90;;;;;;;;;;6226470;28;24420;-74
2024/01/21 10:32:44;;;;;;;7.47;5.80;;;;;;;;;;6225797;28;24497;-74
2024/01/21 10:35:46;;;;;;;8.30;5.85;;;;;;;;;;6229682;28;24553;-74
2024/01/21 10:38:50;;;;;;;7.45;5.43;;;;;;;;;;6226250;28;24432;-74
2024/01/21 10:41:52;;;;;;;7.50;5.30;;;;;;;;;;6225708;28;24433;-74
2024/01/21 10:44:54;;;;;;;7.68;5.65;;;;;;;;;;6226728;28;24436;-74
2024/01/21 10:47:59;;;;;;;7.63;5.47;;;;;;;;;;6207733;28;24482;-74
2024/01/21 10:51:01;;;;;;;7.43;5.70;;;;;;;;;;6226584;28;24424;-73
2024/01/21 10:54:04;;;;;;;8.53;6.43;;;;;;;;;;6225520;28;24828;-73
2024/01/21 10:57:06;;;;;;;8.73;6.40;;;;;;;;;;6225873;28;24518;-74
2024/01/21 11:00:09;;;;;;;9.00;6.85;;;;;;;;;;6225246;28;24610;-74
2024/01/21 11:03:27;;;;;;;9.30;6.63;;;;;;;;;;6225715;28;24471;-75
2024/01/21 11:06:28;;;;;;;9.20;7.17;;;;;;;;;;6241713;28;24642;-75
2024/01/21 11:09:32;;;;;;;9.25;6.78;;;;;;;;;;6225672;28;24420;-75
2024/01/21 11:12:34;;;;;;;8.35;6.53;;;;;;;;;;6226063;28;25018;-73
2024/01/21 11:15:37;;;;;;;9.55;7.28;;;;;;;;;;6224977;28;24522;-74
2024/01/21 11:18:43;;;;;;;10.55;7.20;;;;;;;;;;6225646;28;24614;-73
2024/01/21 11:21:44;;;;;;;10.53;7.40;;;;;;;;;;6227673;28;24509;-75
2024/01/21 11:24:51;;;;;;;11.17;7.50;;;;;;;;;;6229014;28;21180;-73
2024/01/21 11:27:54;;;;;;;11.60;7.97;;;;;;;;;;6227977;28;24918;-74
2024/01/21 11:31:03;;;;;;;11.13;8.10;;;;;;;;;;6230966;28;24462;-74
2024/01/21 11:34:11;;;;;;;11.27;7.57;;;;;;;;;;6230895;28;24479;-75
2024/01/21 11:37:14;;;;;;;10.53;7.67;;;;;;;;;;6230575;28;25002;-76
2024/01/21 11:40:17;;;;;;;9.98;7.40;;;;;;;;;;6230134;28;24885;-76
2024/01/21 11:43:19;;;;;;;11.17;8.27;;;;;;;;;;6229065;28;24693;-74
2024/01/21 11:46:22;;;;;;;9.82;7.90;;;;;;;;;;6219893;28;24848;-74
2024/01/21 11:49:26;;;;;;;11.15;8.52;;;;;;;;;;6230339;28;24474;-74
2024/01/21 11:52:28;;;;;;;10.63;8.23;;;;;;;;;;6229536;28;25359;-74
2024/01/21 11:55:30;;;;;;;10.87;8.27;;;;;;;;;;6230317;28;24518;-74
2024/01/21 11:58:34;;;;;;;11.00;8.07;;;;;;;;;;6229368;28;24427;-74
2024/01/21 12:01:37;;;;;;;11.38;8.60;;;;;;;;;;6229069;28;24431;-74
2024/01/21 12:04:40;;;;;;;11.02;8.43;;;;;;;;;;6230263;28;24421;-74
2024/01/21 12:07:42;;;;;;;11.32;8.30;;;;;;;;;;6229910;28;24622;-74
2024/01/21 12:10:44;;;;;;;11.00;8.07;;;;;;;;;;6229004;28;24417;-74
2024/01/21 12:13:47;;;;;;;11.63;8.43;;;;;;;;;;6228798;28;24502;-74
2024/01/21 12:16:51;;;;;;;11.17;8.27;;;;;;;;;;6227010;28;24433;-74
2024/01/21 12:19:54;;;;;;;12.30;8.85;;;;;;;;;;6229009;28;24458;-74
2024/01/21 12:22:56;;;;;;;11.98;8.60;;;;;;;;;;6229462;28;24455;-74
2024/01/21 12:25:58;;;;;;;12.48;8.77;;;;;;;;;;6227489;28;24646;-74
2024/01/21 12:29:00;;;;;;;11.87;9.07;;;;;;;;;;6209257;28;24544;-74
2024/01/21 12:32:06;;;;;;;10.55;8.38;;;;;;;;;;6227984;28;24426;-75
2024/01/21 12:35:10;;;;;;;11.50;8.45;;;;;;;;;;6226789;28;24432;-74
2024/01/21 12:38:13;;;;;;;12.95;9.63;;;;;;;;;;6227305;28;24471;-74
2024/01/21 12:41:15;;;;;;;12.85;9.10;;;;;;;;;;6226874;28;24907;-74
2024/01/21 12:44:17;;;;;;;11.15;8.75;;;;;;;;;;6227179;28;24428;-73
2024/01/21 12:47:19;;;;;;;12.15;8.65;;;;;;;;;;6229886;28;24440;-75
2024/01/21 12:50:23;;;;;;;10.40;8.15;;;;;;;;;;6227762;28;24431;-74
2024/01/21 12:53:25;;;;;;;12.35;8.43;;;;;;;;;;6224550;28;24492;-73
2024/01/21 12:56:28;;;;;;;13.82;8.43;;;;;;;;;;6227586;28;24424;-74
2024/01/21 12:59:30;;;;;;;11.20;8.50;;;;;;;;;;6225390;28;24428;-75
2024/01/21 13:02:32;;;;;;;11.05;8.40;;;;;;;;;;6225024;28;24602;-75
2024/01/21 13:05:42;;;;;;;11.63;8.35;;;;;;;;;;6227062;28;24424;-74
2024/01/21 13:08:46;;;;;;;11.00;8.27;;;;;;;;;;6226655;28;24443;-74
2024/01/21 13:11:52;;;;;;;11.93;8.40;;;;;;;;;;6228205;28;24832;-74
2024/01/21 13:14:55;;;;;;;12.70;8.75;;;;;;;;;;6225903;28;24519;-74
2024/01/21 13:18:02;;;;;;;10.45;8.43;;;;;;;;;;6225932;28;24841;-74
2024/01/21 13:21:18;;;;;;;13.57;9.97;;;;;;;;;;6227921;28;24781;-74
2024/01/21 13:24:25;;;;;;;13.50;9.75;;;;;;;;;;6223175;28;24603;-75
2024/01/21 13:27:40;;;;;;;13.10;9.73;;;;;;;;;;6219211;28;24428;-75
2024/01/21 13:34:12;;;;;;;11.70;9.40;;;;;;;;;;6212887;28;24447;-75
2024/01/21 13:37:18;;;;;;;12.10;9.38;;;;;;;;;;6225169;28;24461;-74
2024/01/21 13:40:19;;;;;;;11.82;8.73;;;;;;;;;;6226292;28;24416;-75
2024/01/21 13:43:23;;;;;;;12.13;8.95;;;;;;;;;;6224400;28;24409;-74
2024/01/21 13:46:33;;;;;;;13.95;8.63;;;;;;;;;;6226434;28;24478;-74
2024/01/21 13:49:37;;;;;;;12.00;9.18;;;;;;;;;;6225589;28;24444;-75
2024/01/21 13:52:41;;;;;;;12.13;9.73;;;;;;;;;;6227536;28;24619;-74
2024/01/21 13:55:46;;;;;;;12.88;9.35;;;;;;;;;;6226027;28;24634;-74
2024/01/21 13:58:49;;;;;;;12.00;8.77;;;;;;;;;;6227156;28;24431;-75
2024/01/21 14:01:53;;;;;;;10.48;8.32;;;;;;;;;;6224783;28;24432;-75
2024/01/21 14:04:55;;;;;;;9.90;7.65;;;;;;;;;;6224899;28;24494;-75
2024/01/21 14:07:59;;;;;;;10.17;7.40;;;;;;;;;;6226155;28;24491;-75
2024/01/21 14:11:04;;;;;;;9.73;7.13;;;;;;;;;;6222249;28;24457;-75
2024/01/21 14:14:07;;;;;;;9.70;6.93;;;;;;;;;;6223424;28;24448;-75
2024/01/21 14:17:09;;;;;;;10.23;7.10;;;;;;;;;;6224870;28;24530;-75
2024/01/21 14:20:13;;;;;;;9.05;6.35;;;;;;;;;;6223813;28;24500;-76
2024/01/21 14:23:17;;;;;;;9.02;6.43;;;;;;;;;;6224565;28;24424;-74
2024/01/21 14:26:21;;;;;;;8.07;6.07;;;;;;;;;;6226103;28;24460;-75
2024/01/21 14:29:27;;;;;;;8.00;5.75;;;;;;;;;;6207554;28;24424;-75
2024/01/21 14:32:29;;;;;;;8.40;5.95;;;;;;;;;;6224612;28;24877;-75
2024/01/21 14:35:31;;;;;;;9.18;6.03;;;;;;;;;;6224576;28;24542;-76
2024/01/21 14:38:36;;;;;;;9.75;5.85;;;;;;;;;;6226239;28;24413;-77
2024/01/21 14:41:37;;;;;;;9.17;6.23;;;;;;;;;;6225072;28;24928;-78
2024/01/21 14:44:40;;;;;;;7.22;5.72;;;;;;;;;;6225924;28;24443;-78
2024/01/21 14:47:42;;;;;;;9.25;5.90;;;;;;;;;;6225451;28;24490;-78
2024/01/21 14:50:44;;;;;;;10.25;6.30;;;;;;;;;;6225953;28;24486;-78
2024/01/21 14:53:48;;;;;;;9.82;6.40;;;;;;;;;;6224275;28;24743;-78
2024/01/21 14:56:49;;;;;;;8.07;5.90;;;;;;;;;;6224994;28;24939;-78
2024/01/21 14:59:51;;;;;;;8.00;5.75;;;;;;;;;;6230178;28;24456;-78
2024/01/21 15:02:53;;;;;;;9.18;6.53;;;;;;;;;;6227348;28;24427;-78
2024/01/21 15:05:56;;;;;;;8.60;6.13;;;;;;;;;;6229101;28;24434;-78
2024/01/21 15:08:59;;;;;;;8.48;5.88;;;;;;;;;;6231528;28;24859;-78
2024/01/21 15:12:02;;;;;;;7.78;5.40;;;;;;;;;;6229030;28;24440;-79
2024/01/21 15:15:07;;;;;;;8.10;5.13;;;;;;;;;;6227462;28;24432;-78
2024/01/21 15:18:09;;;;;;;7.45;5.40;;;;;;;;;;6226869;28;24435;-78
2024/01/21 15:21:11;;;;;;;8.75;5.95;;;;;;;;;;6217906;28;24491;-78
2024/01/21 15:24:14;;;;;;;7.60;5.43;;;;;;;;;;6229571;28;25044;-78
2024/01/21 15:27:16;;;;;;;7.00;5.38;;;;;;;;;;6230181;28;24801;-79
2024/01/21 15:30:18;;;;;;;7.85;5.85;;;;;;;;;;6227928;28;24495;-78
2024/01/21 15:33:20;;;;;;;9.18;5.70;;;;;;;;;;6228397;28;24455;-78
2024/01/21 15:36:22;;;;;;;10.50;6.38;;;;;;;;;;6229084;28;24436;-78
2024/01/21 15:39:26;;;;;;;8.57;5.70;;;;;;;;;;6229000;28;24421;-77
2024/01/21 15:42:27;;;;;;;8.60;5.68;;;;;;;;;;6227237;28;24420;-79
2024/01/21 15:45:30;;;;;;;7.60;5.30;;;;;;;;;;6227710;28;24451;-79
2024/01/21 15:48:32;;;;;;;7.57;5.20;;;;;;;;;;6229027;28;24439;-74
2024/01/21 15:51:34;;;;;;;8.27;5.43;;;;;;;;;;6227621;28;24434;-75
2024/01/21 15:54:38;;;;;;;7.10;4.95;;;;;;;;;;6228655;28;24428;-75
2024/01/21 15:57:41;;;;;;;7.70;4.78;;;;;;;;;;6229843;28;24437;-75
2024/01/21 16:00:46;;;;;;;8.10;4.80;;;;;;;;;;6228077;28;24487;-75
2024/01/21 16:03:48;;;;;;;6.85;5.07;;;;;;;;;;6228411;28;24483;-75
2024/01/21 16:06:50;;;;;;;8.10;5.68;;;;;;;;;;6242807;28;24450;-75
2024/01/21 16:09:54;;;;;;;8.93;5.65;;;;;;;;;;6228505;28;24670;-75
2024/01/21 16:12:55;;;;;;;7.82;4.85;;;;;;;;;;6228976;28;24625;-76
2024/01/21 16:15:57;;;;;;;8.13;4.70;;;;;;;;;;6229137;28;24849;-75
2024/01/21 16:19:03;;;;;;;8.57;4.95;;;;;;;;;;6229668;28;24447;-75
2024/01/21 16:22:05;;;;;;;8.17;5.13;;;;;;;;;;6228935;28;24452;-75
2024/01/21 16:25:10;;;;;;;8.80;5.32;;;;;;;;;;6228303;28;24495;-75
2024/01/21 16:28:11;;;;;;;7.18;4.70;;;;;;;;;;6227919;28;24451;-75
2024/01/21 16:31:14;;;;;;;8.30;4.80;;;;;;;;;;6219495;28;24874;-75
2024/01/21 16:34:16;;;;;;;11.93;5.20;;;;;;;;;;6241248;28;24436;-75
2024/01/21 16:37:18;;;;;;;7.97;4.80;;;;;;;;;;6229513;28;24452;-75
2024/01/21 16:40:22;;;;;;;8.52;4.68;;;;;;;;;;6226444;28;24424;-74
2024/01/21 16:43:24;;;;;;;7.72;4.70;;;;;;;;;;6211605;28;24466;-75
2024/01/21 16:46:25;;;;;;;6.60;4.40;;;;;;;;;;6227566;28;24432;-74
2024/01/21 16:49:27;;;;;;;8.00;4.55;;;;;;;;;;6228133;28;24427;-74
2024/01/21 16:52:32;;;;;;;7.22;4.63;;;;;;;;;;6227251;28;24444;-75
2024/01/21 16:55:37;;;;;;;9.43;4.75;;;;;;;;;;6243210;28;24491;-74
2024/01/21 16:58:38;;;;;;;8.63;4.80;;;;;;;;;;6229472;28;24474;-74
2024/01/21 17:01:45;;;;;;;8.25;4.63;;;;;;;;;;6226655;28;24475;-74
2024/01/21 17:04:47;;;;;;;7.32;4.55;;;;;;;;;;6225369;28;24428;-74
2024/01/21 17:07:49;;;;;;;8.60;5.00;;;;;;;;;;6227483;28;24925;-74
2024/01/21 17:11:03;;;;;;;7.45;4.97;;;;;;;;;;6226866;28;24431;-74
2024/01/21 17:14:06;;;;;;;8.35;4.88;;;;;;;;;;6226510;28;24488;-74
2024/01/21 17:17:08;;;;;;;9.07;4.83;;;;;;;;;;6226055;28;24607;-74
2024/01/21 17:20:11;;;;;;;7.22;4.75;;;;;;;;;;6227666;28;24424;-75
2024/01/21 17:23:13;;;;;;;7.53;4.88;;;;;;;;;;6224967;28;24669;-75
2024/01/21 17:26:17;;;;;;;6.18;4.22;;;;;;;;;;6231800;28;24659;-74
2024/01/21 17:29:18;;;;;;;8.10;4.28;;;;;;;;;;6228114;28;24416;-75
2024/01/21 17:32:20;;;;;;;6.93;4.35;;;;;;;;;;6225794;28;24419;-74
2024/01/21 17:35:22;;;;;;;6.78;4.50;;;;;;;;;;6225943;28;24638;-74
2024/01/21 17:38:24;;;;;;;8.55;4.80;;;;;;;;;;6226789;28;24440;-74
2024/01/21 17:41:27;;;;;;;5.97;4.38;;;;;;;;;;6226622;28;24420;-74
2024/01/21 17:44:29;;;;;;;6.63;4.03;;;;;;;;;;6226266;28;24695;-74
2024/01/21 17:47:31;;;;;;;7.50;4.53;;;;;;;;;;6225540;28;24456;-74
2024/01/21 17:50:33;;;;;;;6.18;3.95;;;;;;;;;;6227319;28;24432;-74
2024/01/21 17:53:35;;;;;;;6.88;4.40;;;;;;;;;;6222141;28;25093;-74
2024/01/21 17:56:38;;;;;;;7.90;4.07;;;;;;;;;;6229065;28;24682;-74
2024/01/21 17:59:40;;;;;;;7.25;4.22;;;;;;;;;;6225102;28;24428;-75
2024/01/21 18:02:42;;;;;;;7.80;4.25;;;;;;;;;;6224351;28;24543;-75
2024/01/21 18:05:45;;;;;;;6.60;4.55;;;;;;;;;;6224669;28;24425;-75
2024/01/21 18:08:47;;;;;;;6.75;4.03;;;;;;;;;;6225253;28;24436;-75